Time;durP1;ratioP1;P1;durP2;ratioP2;P2;SDS_P1;SDS_P2;PMS_P1;PMS_P2;Temp;Humidity;BMP_temperature;BMP_pressure;BME280_temperature;BME280_humidity;BME280_pressure;Samples;Min_cycle;Max_cycle;Signal;HPM_P1;HPM_P2
2023/11/16 00:02:12;;;;;;;3.95;1.50;;;8.20;98.20;;;;;;5067065;28;20055;-74
2023/11/16 00:04:39;;;;;;;2.97;1.17;;;8.40;97.90;;;;;;5067738;28;20184;-74
2023/11/16 00:07:07;;;;;;;2.95;1.38;;;8.70;97.60;;;;;;5070970;28;20051;-74
2023/11/16 00:09:36;;;;;;;3.65;1.73;;;8.50;98.10;;;;;;5069671;28;20027;-74
2023/11/16 00:12:02;;;;;;;2.38;0.90;;;8.50;97.90;;;;;;5066703;28;20043;-74
2023/11/16 00:14:28;;;;;;;2.75;1.20;;;8.40;98.00;;;;;;5070505;28;20106;-75
2023/11/16 00:17:00;;;;;;;2.45;1.00;;;8.30;98.90;;;;;;5070530;28;20122;-74
2023/11/16 00:19:29;;;;;;;2.22;1.13;;;8.10;98.20;;;;;;5072731;28;20103;-74
2023/11/16 00:21:55;;;;;;;3.13;1.00;;;8.30;98.20;;;;;;5073613;28;20032;-74
2023/11/16 00:24:20;;;;;;;2.13;0.90;;;8.50;97.60;;;;;;5073979;28;20097;-73
2023/11/16 00:26:46;;;;;;;2.33;1.08;;;8.20;98.50;;;;;;5073103;28;20036;-73
2023/11/16 00:29:12;;;;;;;2.17;1.05;;;8.30;97.90;;;;;;5073878;28;20039;-74
2023/11/16 00:31:38;;;;;;;4.30;1.42;;;8.30;98.20;;;;;;5074468;28;20036;-73
2023/11/16 00:34:05;;;;;;;3.22;1.00;;;8.30;98.20;;;;;;5073362;28;20068;-74
2023/11/16 00:36:31;;;;;;;2.25;0.80;;;8.10;98.30;;;;;;5072128;28;21321;-74
2023/11/16 00:38:58;;;;;;;3.45;0.90;;;8.20;98.10;;;;;;5073411;28;20706;-74
2023/11/16 00:41:24;;;;;;;2.40;1.05;;;8.20;98.30;;;;;;5073123;28;20130;-74
2023/11/16 00:43:50;;;;;;;1.90;0.90;;;8.20;98.70;;;;;;5073183;28;20114;-74
2023/11/16 00:46:16;;;;;;;7.55;1.42;;;8.10;98.50;;;;;;5073896;28;20446;-74
2023/11/16 00:48:43;;;;;;;2.08;0.75;;;8.10;98.50;;;;;;5075333;28;20024;-74
2023/11/16 00:51:09;;;;;;;5.10;1.38;;;8.10;98.60;;;;;;5071171;28;20043;-74
2023/11/16 00:53:42;;;;;;;1.88;0.80;;;8.10;98.50;;;;;;5069818;28;20048;-74
2023/11/16 00:56:09;;;;;;;2.22;0.90;;;8.10;98.50;;;;;;5071892;28;20048;-74
2023/11/16 00:58:35;;;;;;;2.38;0.85;;;8.00;98.70;;;;;;5072798;28;20127;-74
2023/11/16 01:01:01;;;;;;;2.47;0.93;;;7.90;98.90;;;;;;5071637;28;20188;-74
2023/11/16 01:03:26;;;;;;;2.20;1.13;;;8.00;98.70;;;;;;5072898;28;20545;-74
2023/11/16 01:05:52;;;;;;;4.18;1.38;;;7.90;98.90;;;;;;5072057;28;20109;-74
2023/11/16 01:08:21;;;;;;;2.90;0.98;;;7.90;98.90;;;;;;5071518;28;20021;-74
2023/11/16 01:10:49;;;;;;;2.63;1.02;;;7.90;99.00;;;;;;5071743;28;20024;-74
2023/11/16 01:13:22;;;;;;;2.38;1.02;;;8.00;98.50;;;;;;5072654;28;20036;-73
2023/11/16 01:15:48;;;;;;;2.85;1.17;;;8.10;98.00;;;;;;5073692;28;20820;-73
2023/11/16 01:18:15;;;;;;;1.33;0.68;;;8.20;98.00;;;;;;5072109;28;20448;-74
2023/11/16 01:20:42;;;;;;;2.05;1.00;;;8.20;98.20;;;;;;5072578;28;20489;-74
2023/11/16 01:23:16;;;;;;;1.58;0.98;;;7.90;98.80;;;;;;5070760;28;20107;-74
2023/11/16 01:25:51;;;;;;;3.45;1.25;;;7.90;98.70;;;;;;5070306;28;20063;-74
2023/11/16 01:28:20;;;;;;;2.65;1.15;;;7.80;98.90;;;;;;5073030;28;20119;-74
2023/11/16 01:30:46;;;;;;;3.63;0.75;;;7.80;98.90;;;;;;5071983;28;20032;-74
2023/11/16 01:33:12;;;;;;;2.90;1.00;;;7.70;99.00;;;;;;5071358;28;20122;-73
2023/11/16 01:35:41;;;;;;;3.20;0.80;;;7.60;99.50;;;;;;5069630;28;20665;-74
2023/11/16 01:38:08;;;;;;;2.30;1.20;;;7.70;98.80;;;;;;5073288;28;21039;-74
2023/11/16 01:40:34;;;;;;;2.17;1.20;;;7.90;98.60;;;;;;5072491;28;20665;-73
2023/11/16 01:43:00;;;;;;;3.38;1.60;;;7.90;98.60;;;;;;5068164;28;20028;-74
2023/11/16 01:45:31;;;;;;;1.90;0.98;;;7.60;99.00;;;;;;5072346;28;20070;-74
2023/11/16 01:48:04;;;;;;;3.28;0.80;;;7.50;99.90;;;;;;5072257;28;20085;-73
2023/11/16 01:50:38;;;;;;;1.95;0.80;;;7.40;99.50;;;;;;5073875;28;20032;-73
2023/11/16 01:53:09;;;;;;;2.42;0.73;;;7.40;99.50;;;;;;5071730;28;20463;-73
2023/11/16 01:55:41;;;;;;;4.20;1.33;;;7.50;99.30;;;;;;5071672;28;20020;-73
2023/11/16 01:58:07;;;;;;;2.17;0.70;;;7.70;98.90;;;;;;5072526;28;20036;-74
2023/11/16 02:00:34;;;;;;;2.97;0.77;;;7.70;98.80;;;;;;5073367;28;20059;-74
2023/11/16 02:03:03;;;;;;;1.77;0.60;;;7.50;99.10;;;;;;5070057;28;20132;-74
2023/11/16 02:05:34;;;;;;;1.20;0.60;;;7.40;99.20;;;;;;5069639;28;20394;-74
2023/11/16 02:08:08;;;;;;;1.25;0.57;;;7.30;99.40;;;;;;5072689;28;20043;-73
2023/11/16 02:10:38;;;;;;;1.85;0.85;;;7.20;99.60;;;;;;5072841;28;20131;-74
2023/11/16 02:13:17;;;;;;;1.58;0.55;;;7.10;99.70;;;;;;5071038;28;20044;-74
2023/11/16 02:15:44;;;;;;;2.00;0.90;;;7.20;99.50;;;;;;5070227;28;20036;-73
2023/11/16 02:18:13;;;;;;;1.50;0.80;;;7.40;99.00;;;;;;5075161;28;20140;-74
2023/11/16 02:20:41;;;;;;;1.67;0.73;;;7.50;99.00;;;;;;5076171;28;20016;-74
2023/11/16 02:23:07;;;;;;;2.53;0.95;;;7.40;99.30;;;;;;5074699;28;20036;-73
2023/11/16 02:25:42;;;;;;;1.70;0.65;;;7.40;99.30;;;;;;5075245;28;20044;-74
2023/11/16 02:28:08;;;;;;;2.22;0.73;;;7.40;99.20;;;;;;5075333;28;20440;-74
2023/11/16 02:30:34;;;;;;;1.73;0.80;;;7.40;99.20;;;;;;5075768;28;20110;-73
2023/11/16 02:33:00;;;;;;;1.42;0.77;;;7.40;99.50;;;;;;5074633;28;20033;-74
2023/11/16 02:35:26;;;;;;;3.15;0.65;;;7.30;99.60;;;;;;5075624;28;20035;-74
2023/11/16 02:37:52;;;;;;;1.10;0.68;;;7.40;99.50;;;;;;5076178;28;20028;-74
2023/11/16 02:40:17;;;;;;;0.63;0.45;;;7.00;99.90;;;;;;5073817;28;20265;-73
2023/11/16 02:42:44;;;;;;;1.95;0.80;;;7.00;99.90;;;;;;5076308;28;20362;-74
2023/11/16 02:45:10;;;;;;;2.13;0.82;;;6.90;99.90;;;;;;5076385;28;20038;-74
2023/11/16 02:47:36;;;;;;;2.58;0.65;;;6.60;99.90;;;;;;5075620;28;20159;-74
2023/11/16 02:50:03;;;;;;;1.35;0.55;;;6.50;99.90;;;;;;5072333;28;20461;-74
2023/11/16 02:52:29;;;;;;;1.42;0.60;;;6.50;99.90;;;;;;5076125;28;20036;-74
2023/11/16 02:54:55;;;;;;;1.38;0.80;;;6.60;99.90;;;;;;5071806;28;20125;-73
2023/11/16 02:57:21;;;;;;;2.15;0.93;;;6.60;99.90;;;;;;5075023;28;20036;-74
2023/11/16 02:59:47;;;;;;;1.30;0.65;;;6.40;99.90;;;;;;5075220;28;20016;-74
2023/11/16 03:02:15;;;;;;;1.35;0.60;;;6.30;99.90;;;;;;5074672;28;20825;-74
2023/11/16 03:04:41;;;;;;;1.08;0.50;;;6.30;99.90;;;;;;5075924;28;20036;-74
2023/11/16 03:07:06;;;;;;;2.42;0.55;;;6.40;99.90;;;;;;5075935;28;20036;-74
2023/11/16 03:09:32;;;;;;;0.98;0.50;;;6.50;99.90;;;;;;5073662;28;20082;-74
2023/11/16 03:11:58;;;;;;;2.38;0.80;;;6.40;99.90;;;;;;5074204;28;20037;-74
2023/11/16 03:14:24;;;;;;;1.90;0.75;;;6.40;99.90;;;;;;5073514;28;20036;-73
2023/11/16 03:16:49;;;;;;;2.05;0.85;;;6.30;99.90;;;;;;5074520;28;20812;-74
2023/11/16 03:19:16;;;;;;;1.10;0.45;;;6.30;99.90;;;;;;5075093;28;20032;-75
2023/11/16 03:21:42;;;;;;;1.90;0.70;;;6.50;99.90;;;;;;5074432;28;20127;-73
2023/11/16 03:24:12;;;;;;;2.15;0.75;;;6.70;99.90;;;;;;5074953;28;20032;-73
2023/11/16 03:26:38;;;;;;;1.88;0.80;;;6.60;99.90;;;;;;5075533;28;21325;-74
2023/11/16 03:29:04;;;;;;;1.52;0.73;;;6.60;99.90;;;;;;5076290;28;20082;-74
2023/11/16 03:31:35;;;;;;;1.65;0.55;;;6.40;99.90;;;;;;5073367;28;20028;-74
2023/11/16 03:34:01;;;;;;;3.85;0.70;;;6.50;99.90;;;;;;5074690;28;20634;-73
2023/11/16 03:36:27;;;;;;;2.13;0.60;;;6.50;99.90;;;;;;5074651;28;20042;-73
2023/11/16 03:38:53;;;;;;;2.88;0.90;;;6.50;99.90;;;;;;5074123;28;20394;-73
2023/11/16 03:41:20;;;;;;;1.40;0.93;;;6.60;99.90;;;;;;5073664;28;20032;-74
2023/11/16 03:43:45;;;;;;;1.27;0.70;;;6.70;99.90;;;;;;5075639;28;20027;-74
2023/11/16 03:46:14;;;;;;;3.05;0.68;;;6.50;99.90;;;;;;5074935;28;20024;-74
2023/11/16 03:48:40;;;;;;;3.38;1.13;;;6.60;99.90;;;;;;5073891;28;20043;-74
2023/11/16 03:51:06;;;;;;;3.35;0.75;;;6.70;99.90;;;;;;5075302;28;20040;-74
2023/11/16 03:53:32;;;;;;;1.55;0.60;;;6.50;99.90;;;;;;5074904;28;20130;-73
2023/11/16 03:55:59;;;;;;;1.48;0.60;;;6.60;99.90;;;;;;5073869;28;20029;-74
2023/11/16 03:58:28;;;;;;;1.17;0.50;;;6.40;99.90;;;;;;5075797;28;20039;-74
2023/11/16 04:00:54;;;;;;;1.52;0.82;;;6.20;99.90;;;;;;5072303;28;20024;-73
2023/11/16 04:03:22;;;;;;;1.65;0.60;;;6.10;99.90;;;;;;5070869;28;20109;-74
2023/11/16 04:05:48;;;;;;;1.55;0.70;;;6.30;99.90;;;;;;5070027;28;20076;-74
2023/11/16 04:08:15;;;;;;;4.22;0.98;;;6.40;99.90;;;;;;5068335;28;20040;-74
2023/11/16 04:10:41;;;;;;;1.65;0.80;;;6.20;99.90;;;;;;5070213;28;20055;-75
2023/11/16 04:13:06;;;;;;;2.08;0.70;;;6.30;99.90;;;;;;5071429;28;20130;-74
2023/11/16 04:15:32;;;;;;;1.77;0.68;;;6.50;99.90;;;;;;5069677;28;20040;-74
2023/11/16 04:17:58;;;;;;;1.67;0.65;;;6.60;99.90;;;;;;5067044;28;20151;-74
2023/11/16 04:20:28;;;;;;;1.50;0.73;;;6.30;99.90;;;;;;5068592;28;20102;-74
2023/11/16 04:22:53;;;;;;;1.75;0.70;;;6.30;99.90;;;;;;5069244;28;20033;-74
2023/11/16 04:25:29;;;;;;;1.60;0.88;;;6.30;99.90;;;;;;5066003;28;21464;-74
2023/11/16 04:28:04;;;;;;;1.77;0.77;;;6.00;99.90;;;;;;5067558;28;20031;-74
2023/11/16 04:30:30;;;;;;;1.15;0.40;;;5.90;99.90;;;;;;5069209;28;20085;-74
2023/11/16 04:32:57;;;;;;;1.17;0.50;;;5.70;99.90;;;;;;5071062;28;20040;-73
2023/11/16 04:35:23;;;;;;;1.25;0.65;;;5.70;99.90;;;;;;5071391;28;20032;-74
2023/11/16 04:37:50;;;;;;;3.00;1.20;;;5.70;99.90;;;;;;5071101;28;20070;-74
2023/11/16 04:40:16;;;;;;;1.98;0.50;;;5.70;99.90;;;;;;5070504;28;20031;-75
2023/11/16 04:42:42;;;;;;;1.02;0.50;;;5.50;99.90;;;;;;5068769;28;20113;-75
2023/11/16 04:45:12;;;;;;;1.40;0.77;;;5.60;99.90;;;;;;5068659;28;20139;-74
2023/11/16 04:47:44;;;;;;;1.73;0.40;;;5.60;99.90;;;;;;5071297;28;20063;-74
2023/11/16 04:50:10;;;;;;;1.75;0.60;;;5.60;99.90;;;;;;5070808;28;20032;-75
2023/11/16 04:52:37;;;;;;;1.83;0.65;;;5.40;99.90;;;;;;5065254;28;20209;-74
2023/11/16 04:55:03;;;;;;;1.75;0.70;;;5.50;99.90;;;;;;5067393;28;20134;-75
2023/11/16 04:57:29;;;;;;;4.88;0.80;;;5.80;99.90;;;;;;5069161;28;20508;-74
2023/11/16 04:59:55;;;;;;;2.50;0.80;;;5.80;99.90;;;;;;5065203;28;20032;-74
2023/11/16 05:02:21;;;;;;;1.15;0.40;;;6.10;99.90;;;;;;5065980;28;20051;-74
2023/11/16 05:04:47;;;;;;;1.95;0.60;;;5.90;99.90;;;;;;5065189;28;20047;-74
2023/11/16 05:07:13;;;;;;;0.55;0.43;;;6.00;99.90;;;;;;5065902;28;20031;-74
2023/11/16 05:09:39;;;;;;;1.55;0.77;;;5.90;99.90;;;;;;5065359;28;20032;-74
2023/11/16 05:12:08;;;;;;;2.38;0.73;;;5.90;99.90;;;;;;5065633;28;20670;-74
2023/11/16 05:14:37;;;;;;;3.17;0.77;;;5.90;99.90;;;;;;5066158;28;20040;-74
2023/11/16 05:17:03;;;;;;;0.65;0.50;;;5.90;99.90;;;;;;5065330;28;20035;-74
2023/11/16 05:19:29;;;;;;;1.50;0.52;;;6.00;99.90;;;;;;5064435;28;20043;-76
2023/11/16 05:21:55;;;;;;;0.70;0.50;;;5.90;99.90;;;;;;5065853;28;20038;-74
2023/11/16 05:24:21;;;;;;;0.88;0.40;;;5.70;99.90;;;;;;5065587;28;20086;-74
2023/11/16 05:26:47;;;;;;;3.38;1.65;;;5.60;99.90;;;;;;5066210;28;20428;-74
2023/11/16 05:29:12;;;;;;;1.45;0.60;;;5.50;99.90;;;;;;5064391;28;20539;-74
2023/11/16 05:31:38;;;;;;;1.05;0.50;;;5.70;99.90;;;;;;5064105;28;20040;-76
2023/11/16 05:34:06;;;;;;;1.63;0.50;;;5.80;99.90;;;;;;5065968;28;20173;-76
2023/11/16 05:36:32;;;;;;;1.90;0.73;;;5.70;99.90;;;;;;5064452;28;20043;-74
2023/11/16 05:38:58;;;;;;;1.55;0.60;;;5.80;99.90;;;;;;5065133;28;20036;-74
2023/11/16 05:41:23;;;;;;;2.38;0.77;;;5.80;99.90;;;;;;5067079;28;20043;-74
2023/11/16 05:43:49;;;;;;;1.15;0.70;;;5.70;99.90;;;;;;5064527;28;20022;-75
2023/11/16 05:46:15;;;;;;;1.95;0.20;;;5.60;99.90;;;;;;5066360;28;20032;-74
2023/11/16 05:48:41;;;;;;;0.98;0.60;;;5.20;99.90;;;;;;5066516;28;20066;-74
2023/11/16 05:51:07;;;;;;;1.70;0.70;;;5.40;99.90;;;;;;5061312;28;20079;-75
2023/11/16 05:53:33;;;;;;;1.50;0.47;;;5.40;99.90;;;;;;5071222;28;20075;-76
2023/11/16 05:55:59;;;;;;;2.05;0.80;;;5.10;99.90;;;;;;5071833;28;20028;-74
2023/11/16 05:58:25;;;;;;;2.58;0.65;;;5.30;99.90;;;;;;5068920;28;20028;-74
2023/11/16 06:00:52;;;;;;;1.80;0.73;;;5.40;99.90;;;;;;5068671;28;20047;-74
2023/11/16 06:03:25;;;;;;;1.65;0.60;;;5.30;99.90;;;;;;5067263;28;21058;-75
2023/11/16 06:05:51;;;;;;;1.92;0.80;;;5.00;99.90;;;;;;5070120;28;20028;-74
2023/11/16 06:08:17;;;;;;;1.23;0.80;;;4.90;99.90;;;;;;5070486;28;20097;-74
2023/11/16 06:10:43;;;;;;;1.95;0.80;;;4.80;99.90;;;;;;5067797;28;21001;-74
2023/11/16 06:13:10;;;;;;;19.52;1.67;;;5.00;99.90;;;;;;5070017;28;20097;-75
2023/11/16 06:15:35;;;;;;;1.98;1.02;;;5.20;99.90;;;;;;5070015;28;20036;-75
2023/11/16 06:18:02;;;;;;;1.50;0.47;;;5.10;99.90;;;;;;5068584;28;20031;-75
2023/11/16 06:20:28;;;;;;;1.52;0.60;;;5.20;99.90;;;;;;5071563;28;20037;-74
2023/11/16 06:22:54;;;;;;;1.50;0.73;;;5.30;99.90;;;;;;5070697;28;20040;-74
2023/11/16 06:25:20;;;;;;;1.33;0.80;;;5.00;99.90;;;;;;5070683;28;20024;-75
2023/11/16 06:27:46;;;;;;;3.55;0.80;;;5.10;99.90;;;;;;5069438;28;20028;-74
2023/11/16 06:30:13;;;;;;;1.05;0.57;;;5.40;99.90;;;;;;5071584;28;20028;-75
2023/11/16 06:32:38;;;;;;;2.55;0.57;;;5.60;99.90;;;;;;5069341;28;20019;-75
2023/11/16 06:35:04;;;;;;;1.45;0.50;;;5.70;99.90;;;;;;5069096;28;20386;-76
2023/11/16 06:37:31;;;;;;;2.60;1.02;;;5.60;99.90;;;;;;5071206;28;20056;-76
2023/11/16 06:39:57;;;;;;;7.72;1.30;;;5.50;99.90;;;;;;5070752;28;21418;-76
2023/11/16 06:42:23;;;;;;;1.48;0.63;;;5.50;99.90;;;;;;5071197;28;20127;-76
2023/11/16 06:44:50;;;;;;;4.30;1.60;;;5.20;99.90;;;;;;5071176;28;20046;-75
2023/11/16 06:47:15;;;;;;;3.25;0.85;;;5.20;99.90;;;;;;5068429;28;20883;-77
2023/11/16 06:49:42;;;;;;;2.33;0.77;;;5.20;99.90;;;;;;5067785;28;20081;-75
2023/11/16 06:52:09;;;;;;;1.90;0.68;;;5.40;99.90;;;;;;5069705;28;20044;-79
2023/11/16 06:54:35;;;;;;;1.38;0.70;;;5.50;99.90;;;;;;5068669;28;20028;-79
2023/11/16 06:57:01;;;;;;;1.88;0.90;;;5.30;99.90;;;;;;5069195;28;20120;-76
2023/11/16 06:59:26;;;;;;;2.53;1.02;;;5.20;99.90;;;;;;5071055;28;20498;-75
2023/11/16 07:01:52;;;;;;;2.72;1.20;;;5.10;99.90;;;;;;5069302;28;20695;-77
2023/11/16 07:04:18;;;;;;;2.13;0.98;;;5.20;99.90;;;;;;5066555;28;20119;-76
2023/11/16 07:06:45;;;;;;;2.20;0.80;;;5.20;99.90;;;;;;5067869;28;20028;-76
2023/11/16 07:09:17;;;;;;;2.50;1.10;;;5.00;99.90;;;;;;5069340;28;20043;-76
2023/11/16 07:11:43;;;;;;;2.20;0.93;;;5.10;99.90;;;;;;5069363;28;20032;-75
2023/11/16 07:14:10;;;;;;;1.63;0.80;;;5.10;99.90;;;;;;5067577;28;20135;-76
2023/11/16 07:16:37;;;;;;;1.10;0.60;;;5.30;99.90;;;;;;5068331;28;20032;-76
2023/11/16 07:19:03;;;;;;;1.63;0.77;;;5.40;99.90;;;;;;5065914;28;20032;-76
2023/11/16 07:21:28;;;;;;;2.28;1.10;;;5.40;99.90;;;;;;5070431;28;20032;-76
2023/11/16 07:23:55;;;;;;;2.33;1.10;;;5.40;99.90;;;;;;5063418;28;20033;-75
2023/11/16 07:26:20;;;;;;;2.72;0.98;;;5.50;99.90;;;;;;5066172;28;20616;-76
2023/11/16 07:28:47;;;;;;;1.80;0.95;;;5.40;99.90;;;;;;5069537;28;20035;-76
2023/11/16 07:31:19;;;;;;;2.30;1.08;;;5.40;99.90;;;;;;5069294;28;20189;-75
2023/11/16 07:33:54;;;;;;;4.07;0.98;;;5.30;99.90;;;;;;5069638;28;20163;-75
2023/11/16 07:36:26;;;;;;;2.03;0.88;;;5.20;99.90;;;;;;5068534;28;20221;-75
2023/11/16 07:38:56;;;;;;;6.05;1.70;;;5.20;99.90;;;;;;5069397;28;20051;-76
2023/11/16 07:41:22;;;;;;;3.40;1.35;;;5.10;99.90;;;;;;5070881;28;20075;-75
2023/11/16 07:43:48;;;;;;;3.35;1.58;;;5.30;99.90;;;;;;5059685;28;20142;-75
2023/11/16 07:46:14;;;;;;;2.60;0.93;;;5.70;99.90;;;;;;5063925;28;20071;-74
2023/11/16 07:48:40;;;;;;;4.45;1.70;;;5.60;99.90;;;;;;5068125;28;20104;-74
2023/11/16 07:51:09;;;;;;;3.67;1.45;;;5.60;99.90;;;;;;5067008;28;20083;-75
2023/11/16 07:53:36;;;;;;;3.30;1.60;;;5.60;99.90;;;;;;5067529;28;20412;-74
2023/11/16 07:56:05;;;;;;;3.40;1.45;;;5.60;99.90;;;;;;5065678;28;20350;-74
2023/11/16 07:58:33;;;;;;;4.20;1.15;;;5.60;99.90;;;;;;5066537;28;20119;-74
2023/11/16 08:01:11;;;;;;;3.15;1.10;;;5.70;99.90;;;;;;5066928;28;20040;-74
2023/11/16 08:03:45;;;;;;;2.65;1.02;;;5.70;99.90;;;;;;5067143;28;20030;-74
2023/11/16 08:06:14;;;;;;;7.65;1.70;;;5.90;99.90;;;;;;5067415;28;20032;-74
2023/11/16 08:08:49;;;;;;;6.18;1.70;;;5.80;99.90;;;;;;5067604;28;20054;-74
2023/11/16 08:11:16;;;;;;;5.40;1.52;;;5.70;99.90;;;;;;5066509;28;20085;-74
2023/11/16 08:13:45;;;;;;;4.53;1.17;;;5.60;99.90;;;;;;5065665;28;20138;-73
2023/11/16 08:16:16;;;;;;;3.17;1.02;;;5.40;99.90;;;;;;5067660;28;20501;-74
2023/11/16 08:18:45;;;;;;;1.58;0.70;;;5.40;99.90;;;;;;5068388;28;20040;-75
2023/11/16 08:21:11;;;;;;;2.55;0.93;;;5.50;99.90;;;;;;5066113;28;20024;-74
2023/11/16 08:23:43;;;;;;;2.10;1.05;;;5.60;99.90;;;;;;5066910;28;20035;-75
2023/11/16 08:26:10;;;;;;;1.60;0.70;;;5.60;99.90;;;;;;5066744;28;20035;-74
2023/11/16 08:28:36;;;;;;;2.45;0.65;;;5.70;99.90;;;;;;5067031;28;20039;-73
2023/11/16 08:31:03;;;;;;;1.75;0.70;;;5.70;99.90;;;;;;5067183;28;20102;-73
2023/11/16 08:33:29;;;;;;;2.35;0.82;;;5.70;99.90;;;;;;5067090;28;20573;-73
2023/11/16 08:35:57;;;;;;;1.75;0.75;;;5.80;99.90;;;;;;5066257;28;20024;-73
2023/11/16 08:38:25;;;;;;;1.52;0.68;;;5.90;99.90;;;;;;5066169;28;20139;-73
2023/11/16 08:40:52;;;;;;;3.05;0.80;;;6.10;99.90;;;;;;5068361;28;20036;-74
2023/11/16 08:43:18;;;;;;;2.65;0.90;;;6.30;99.90;;;;;;5066195;28;20038;-74
2023/11/16 08:45:45;;;;;;;2.17;1.00;;;6.50;99.90;;;;;;5066737;28;20032;-73
2023/11/16 08:48:15;;;;;;;3.47;1.33;;;6.50;99.90;;;;;;5067066;28;20059;-73
2023/11/16 08:50:42;;;;;;;4.53;1.30;;;6.50;99.90;;;;;;5066468;28;20882;-74
2023/11/16 08:53:08;;;;;;;3.83;1.98;;;6.60;99.90;;;;;;5065630;28;20123;-74
2023/11/16 08:55:34;;;;;;;5.72;2.30;;;6.60;99.90;;;;;;5065852;28;20039;-74
2023/11/16 08:58:00;;;;;;;5.93;2.15;;;6.60;99.90;;;;;;5066851;28;20020;-74
2023/11/16 09:00:37;;;;;;;4.30;1.60;;;6.60;99.90;;;;;;5066716;28;20028;-73
2023/11/16 09:03:07;;;;;;;3.60;1.75;;;6.70;99.90;;;;;;5066170;28;20054;-74
2023/11/16 09:05:36;;;;;;;5.13;2.15;;;6.80;99.90;;;;;;5066778;28;20117;-74
2023/11/16 09:08:03;;;;;;;4.70;2.10;;;6.90;99.90;;;;;;5061028;28;20427;-74
2023/11/16 09:10:31;;;;;;;9.25;2.22;;;7.00;99.90;;;;;;5066313;28;20533;-74
2023/11/16 09:12:59;;;;;;;6.22;2.78;;;7.10;99.90;;;;;;5065390;28;20036;-74
2023/11/16 09:15:25;;;;;;;6.85;2.40;;;7.20;99.90;;;;;;5064705;28;20025;-73
2023/11/16 09:17:52;;;;;;;7.18;3.13;;;7.10;99.90;;;;;;5064312;28;20028;-74
2023/11/16 09:20:18;;;;;;;6.88;2.47;;;7.00;99.90;;;;;;5062161;28;20032;-74
2023/11/16 09:22:50;;;;;;;4.32;2.58;;;7.10;99.90;;;;;;5066199;28;20894;-74
2023/11/16 09:25:20;;;;;;;7.28;2.42;;;7.10;99.90;;;;;;5065311;28;20036;-73
2023/11/16 09:27:50;;;;;;;7.80;3.40;;;7.20;99.90;;;;;;5066258;28;20032;-74
2023/11/16 09:30:22;;;;;;;6.20;3.00;;;7.30;99.90;;;;;;5065165;28;20035;-73
2023/11/16 09:32:52;;;;;;;10.75;3.47;;;7.40;99.90;;;;;;5064547;28;20031;-74
2023/11/16 09:35:27;;;;;;;5.57;2.55;;;7.40;99.90;;;;;;5064731;28;20117;-73
2023/11/16 09:37:55;;;;;;;7.70;2.90;;;7.50;99.90;;;;;;5066158;28;20067;-74
2023/11/16 09:40:28;;;;;;;5.25;2.28;;;7.70;99.90;;;;;;5064630;28;20020;-74
2023/11/16 09:42:58;;;;;;;6.20;2.38;;;7.80;99.90;;;;;;5063489;28;20036;-74
2023/11/16 09:45:27;;;;;;;6.70;2.72;;;7.80;99.90;;;;;;5063904;28;20067;-74
2023/11/16 09:47:59;;;;;;;9.63;2.38;;;7.90;99.90;;;;;;5065975;28;20036;-74
2023/11/16 09:50:29;;;;;;;5.35;2.42;;;8.00;99.90;;;;;;5064952;28;20043;-74
2023/11/16 09:52:56;;;;;;;9.02;3.55;;;8.10;99.90;;;;;;5065374;28;20028;-74
2023/11/16 09:55:32;;;;;;;4.32;2.33;;;8.10;99.90;;;;;;5065442;28;20047;-74
2023/11/16 09:58:10;;;;;;;4.68;2.22;;;8.10;99.90;;;;;;5064521;28;20089;-74
2023/11/16 10:00:36;;;;;;;6.40;2.10;;;8.00;99.90;;;;;;5065876;28;20470;-74
2023/11/16 10:03:05;;;;;;;7.78;2.00;;;8.10;99.90;;;;;;5063877;28;20067;-74
2023/11/16 10:05:36;;;;;;;5.32;2.00;;;8.40;99.90;;;;;;5062718;28;20032;-73
2023/11/16 10:08:03;;;;;;;4.07;1.60;;;8.40;99.90;;;;;;5064098;28;20146;-73
2023/11/16 10:10:29;;;;;;;4.68;1.80;;;8.40;99.90;;;;;;5066493;28;20119;-74
2023/11/16 10:12:56;;;;;;;4.20;1.70;;;8.50;99.90;;;;;;5064588;28;20036;-73
2023/11/16 10:15:23;;;;;;;3.60;1.83;;;8.40;99.90;;;;;;5064125;28;20155;-74
2023/11/16 10:17:49;;;;;;;6.53;2.10;;;8.40;99.90;;;;;;5064866;28;20521;-73
2023/11/16 10:20:20;;;;;;;3.42;1.45;;;8.60;99.90;;;;;;5064030;28;20040;-73
2023/11/16 10:22:47;;;;;;;4.50;1.73;;;8.50;99.90;;;;;;5063580;28;20048;-73
2023/11/16 10:25:14;;;;;;;3.13;1.50;;;8.60;99.90;;;;;;5065722;28;20044;-73
2023/11/16 10:27:41;;;;;;;3.70;1.67;;;8.70;99.90;;;;;;5064979;28;20078;-73
2023/11/16 10:30:11;;;;;;;4.45;1.90;;;8.70;99.90;;;;;;5063466;28;20030;-73
2023/11/16 10:32:38;;;;;;;4.53;1.73;;;8.60;99.90;;;;;;5063296;28;20043;-73
2023/11/16 10:35:09;;;;;;;4.70;1.90;;;8.70;99.90;;;;;;5065436;28;20048;-73
2023/11/16 10:37:35;;;;;;;4.43;2.10;;;8.80;99.90;;;;;;5064364;28;20036;-73
2023/11/16 10:40:03;;;;;;;4.07;1.90;;;8.90;99.90;;;;;;5066076;28;20071;-73
2023/11/16 10:42:30;;;;;;;4.13;1.95;;;8.80;99.90;;;;;;5070598;28;20105;-73
2023/11/16 10:44:58;;;;;;;6.13;2.22;;;8.80;99.90;;;;;;5068084;28;20040;-73
2023/11/16 10:47:24;;;;;;;4.93;1.80;;;8.80;99.90;;;;;;5067577;28;20040;-74
2023/11/16 10:49:51;;;;;;;3.60;1.70;;;8.80;99.90;;;;;;5065584;28;20645;-74
2023/11/16 10:52:17;;;;;;;3.97;1.95;;;8.80;99.90;;;;;;5067277;28;20025;-73
2023/11/16 10:54:45;;;;;;;5.47;1.85;;;8.90;99.90;;;;;;5067470;28;20086;-76
2023/11/16 10:57:15;;;;;;;4.70;2.22;;;9.10;99.90;;;;;;5068712;28;20056;-74
2023/11/16 10:59:47;;;;;;;5.32;2.35;;;9.20;99.90;;;;;;5067802;28;20120;-73
2023/11/16 11:02:15;;;;;;;3.78;1.65;;;9.20;99.90;;;;;;5067596;28;20056;-73
2023/11/16 11:04:41;;;;;;;3.80;1.80;;;9.20;99.90;;;;;;5068226;28;20028;-73
2023/11/16 11:07:13;;;;;;;5.40;1.50;;;9.20;99.90;;;;;;5069731;28;20532;-73
2023/11/16 11:09:42;;;;;;;6.05;1.60;;;9.20;99.90;;;;;;5065896;28;20036;-73
2023/11/16 11:12:13;;;;;;;2.83;1.58;;;9.20;99.90;;;;;;5066900;28;20559;-73
2023/11/16 11:14:46;;;;;;;7.57;1.73;;;9.20;99.90;;;;;;5069200;28;20059;-73
2023/11/16 11:17:19;;;;;;;3.33;1.58;;;9.10;99.90;;;;;;5069601;28;20035;-73
2023/11/16 11:19:59;;;;;;;6.10;1.75;;;9.20;99.90;;;;;;5067931;28;20051;-73
2023/11/16 11:22:31;;;;;;;3.70;1.90;;;9.30;99.90;;;;;;5067300;28;20036;-73
2023/11/16 11:24:58;;;;;;;6.03;1.55;;;9.30;99.90;;;;;;5068911;28;20024;-73
2023/11/16 11:27:25;;;;;;;3.65;2.00;;;9.40;99.90;;;;;;5066728;28;20032;-73
2023/11/16 11:29:54;;;;;;;4.30;1.95;;;9.40;99.90;;;;;;5069224;28;20067;-73
2023/11/16 11:32:23;;;;;;;6.47;2.28;;;9.40;99.90;;;;;;5071859;28;20663;-73
2023/11/16 11:34:49;;;;;;;5.35;1.85;;;9.20;99.90;;;;;;5071271;28;20040;-74
2023/11/16 11:37:15;;;;;;;4.03;1.90;;;9.10;99.90;;;;;;5070972;28;20032;-73
2023/11/16 11:39:41;;;;;;;3.92;2.13;;;8.90;99.90;;;;;;5071702;28;20143;-73
2023/11/16 11:42:09;;;;;;;3.95;1.90;;;9.00;99.90;;;;;;5070644;28;20596;-73
2023/11/16 11:44:35;;;;;;;3.97;1.73;;;9.10;99.90;;;;;;5071232;28;20036;-73
2023/11/16 11:47:01;;;;;;;4.93;2.13;;;9.20;99.90;;;;;;5071062;28;21054;-73
2023/11/16 11:49:27;;;;;;;5.47;1.92;;;9.40;99.90;;;;;;5069588;28;20040;-73
2023/11/16 11:51:53;;;;;;;4.55;2.35;;;9.20;99.90;;;;;;5070668;28;20032;-73
2023/11/16 11:54:19;;;;;;;6.25;2.75;;;9.20;99.90;;;;;;5071567;28;20043;-73
2023/11/16 11:56:46;;;;;;;5.38;2.40;;;9.20;99.90;;;;;;5068211;28;21015;-73
2023/11/16 11:59:12;;;;;;;3.67;2.00;;;9.40;99.90;;;;;;5069366;28;20028;-74
2023/11/16 12:01:38;;;;;;;5.97;2.45;;;9.50;99.80;;;;;;5070082;28;20473;-73
2023/11/16 12:04:07;;;;;;;4.80;2.03;;;9.70;99.90;;;;;;5068624;28;20062;-73
2023/11/16 12:06:32;;;;;;;7.03;2.20;;;9.70;99.70;;;;;;5068738;28;20028;-74
2023/11/16 12:08:58;;;;;;;4.18;1.70;;;9.80;99.60;;;;;;5070242;28;20431;-74
2023/11/16 12:11:26;;;;;;;5.68;2.05;;;10.00;99.20;;;;;;5069054;28;20574;-73
2023/11/16 12:13:59;;;;;;;3.42;1.90;;;10.10;99.00;;;;;;5068551;28;20032;-73
2023/11/16 12:16:27;;;;;;;4.93;2.20;;;9.90;99.70;;;;;;5068205;28;20035;-74
2023/11/16 12:18:54;;;;;;;3.83;1.90;;;10.00;99.70;;;;;;5066237;28;20040;-74
2023/11/16 12:21:22;;;;;;;4.43;2.08;;;9.90;99.30;;;;;;5067134;28;20431;-73
2023/11/16 12:23:55;;;;;;;3.95;2.03;;;10.00;99.20;;;;;;5065695;28;20028;-73
2023/11/16 12:26:23;;;;;;;5.60;2.55;;;10.00;99.60;;;;;;5070289;28;20386;-73
2023/11/16 12:28:49;;;;;;;5.07;2.20;;;9.90;99.60;;;;;;5069759;28;20714;-74
2023/11/16 12:31:18;;;;;;;6.28;2.28;;;10.00;99.90;;;;;;5068576;28;20044;-73
2023/11/16 12:33:56;;;;;;;5.30;2.08;;;10.00;99.90;;;;;;5069166;28;20173;-74
2023/11/16 12:36:24;;;;;;;3.15;1.67;;;9.90;99.80;;;;;;5069729;28;20032;-74
2023/11/16 12:38:52;;;;;;;4.47;2.40;;;10.00;99.90;;;;;;5070100;28;20071;-74
2023/11/16 12:41:19;;;;;;;4.13;2.08;;;10.00;99.90;;;;;;5068912;28;20034;-76
2023/11/16 12:43:45;;;;;;;3.72;1.95;;;9.90;99.90;;;;;;5068557;28;20213;-75
2023/11/16 12:46:12;;;;;;;4.05;1.70;;;9.80;99.90;;;;;;5065673;28;20527;-75
2023/11/16 12:48:38;;;;;;;5.07;1.92;;;9.80;99.90;;;;;;5064094;28;20039;-76
2023/11/16 12:51:06;;;;;;;6.15;2.20;;;9.70;99.90;;;;;;5064004;28;20036;-76
2023/11/16 12:53:35;;;;;;;6.40;2.50;;;9.80;99.90;;;;;;5063639;28;20035;-76
2023/11/16 12:56:02;;;;;;;6.82;2.53;;;9.80;99.90;;;;;;5064012;28;20166;-76
2023/11/16 12:58:29;;;;;;;4.38;2.10;;;9.80;99.90;;;;;;5063594;28;21239;-75
2023/11/16 13:00:56;;;;;;;6.20;2.42;;;9.80;99.90;;;;;;5063449;28;20181;-76